Meath Environmental Platform

Observations for Trim Patrick St

Time AQI Temp °C Hum % Pres Pa CO μg/m³ H₂S μg/m³ NO μg/m³ NO₂ μg/m³ O₃ μg/m³ SO₂ μg/m³ PM1 μg/m³ PM2.5 μg/m³ PM10 μg/m³
Monday 3 August 2026
23:16 3 16.8 85 38,460 0.14 5.26 1.17 35.51 19.52 0 2.86 5.61 6.17
23:15 3 16.8 85 38,460 0.15 5.65 1.03 25.37 19.96 0 2.86 4.92 5.41
23:14 3 16.8 84 38,460 0.15 8.73 0.86 50.21 15.14 0 2.86 6.31 6.94
23:13 3 16.8 85 38,460 0.15 8.03 1.04 32.81 22.73 0 3.71 6.3 6.93
23:12 3 16.8 84 38,460 0.14 6.43 1.02 38.5 18.03 0 3.71 5.62 6.18
23:11 3 16.8 84 38,460 0.12 5.41 1.06 27.74 27.03 0 2.86 4.93 5.42
23:10 3 16.8 84 38,460 0.13 6.12 1.01 32.78 21.87 0 3.71 6.31 6.94
23:09 3 16.8 84 38,460 0.14 6.7 1.12 27.23 27.06 0 3.71 7.01 7.71
23:08 3 16.8 84 38,460 0.19 10.61 0.79 31.84 24.52 0 2.86 5.64 6.2
23:07 3 16.8 84 38,460 0.74 12.97 0.92 40.13 17.3 0 2.86 5.69 6.25
23:06 3 16.8 84 38,460 0.13 10.64 0.69 50.14 22.48 0 3.71 6.36 6.99
23:05 3 16.8 84 38,460 0.14 7.92 0.84 54.79 16.07 0 2.86 6.34 6.98
23:03 3 16.8 84 38,460 0.14 8.71 1.13 36.13 21.23 0 3.71 6.32 6.95
23:02 3 16.8 84 38,460 0.13 7.4 1 43.82 15.47 0 2.86 5.63 6.19
23:00 3 16.8 84 38,460 0.11 9.54 1.12 32.17 25.64 0 2.86 6.32 6.95
22:58 3 16.8 84 38,460 0.12 12.42 0.97 48.05 15.48 0 2.86 6.34 6.98
22:57 3 16.8 84 38,460 0.13 11.95 1.01 51.59 27.67 0 4.57 7.05 7.75
22:54 3 16.8 84 38,460 0.14 8.76 0.85 37 20.64 0 2.86 5.68 6.25
22:53 3 16.8 84 38,460 0.13 11.24 0.85 40.53 18.85 0 3.71 6.38 7.02
22:52 3 16.8 84 38,460 0.12 9.39 0.87 49.78 11.85 0 3.71 6.38 7.02